createdAt,value
2018-11-05T00:02:03.348Z,60.04
2018-11-05T00:04:32.266Z,60.24
2018-11-05T00:07:01.177Z,60.50
2018-11-05T00:09:30.125Z,60.95
2018-11-05T00:11:59.116Z,61.95
2018-11-05T00:14:28.045Z,61.34
2018-11-05T00:16:56.899Z,61.79
2018-11-05T00:19:25.830Z,62.94
2018-11-05T00:21:54.770Z,62.56
2018-11-05T00:24:23.669Z,62.33
2018-11-05T00:26:52.749Z,62.67
2018-11-05T00:29:21.707Z,62.45
2018-11-05T00:31:50.624Z,62.43
2018-11-05T00:34:19.668Z,62.99
2018-11-05T00:36:48.653Z,62.96
2018-11-05T00:39:17.641Z,62.78
2018-11-05T00:41:46.765Z,63.10
2018-11-05T00:44:16.714Z,62.80
2018-11-05T00:46:45.603Z,61.60
2018-11-05T00:49:14.519Z,62.39
2018-11-05T00:51:43.420Z,61.00
2018-11-05T00:54:12.417Z,61.79
2018-11-05T00:56:41.371Z,62.41
2018-11-05T00:59:10.263Z,61.77
2018-11-05T01:01:39.158Z,61.38
2018-11-05T01:04:08.059Z,60.84
2018-11-05T01:06:37.002Z,61.66
2018-11-05T01:09:07.316Z,62.37
2018-11-05T01:11:36.180Z,61.43
2018-11-05T01:14:05.093Z,61.48
2018-11-05T01:16:34.075Z,61.75
2018-11-05T01:19:02.996Z,63.49
2018-11-05T01:21:32.000Z,61.40
2018-11-05T01:24:00.905Z,61.53
2018-11-05T01:26:29.734Z,61.22
2018-11-05T01:28:58.632Z,61.89
2018-11-05T01:31:27.684Z,62.12
2018-11-05T01:33:56.768Z,63.10
2018-11-05T01:36:25.684Z,61.72
2018-11-05T01:38:54.680Z,62.15
2018-11-05T01:41:23.561Z,61.42
2018-11-05T01:43:52.568Z,61.23
2018-11-05T01:46:21.440Z,61.70
2018-11-05T01:48:50.433Z,61.81
2018-11-05T01:51:19.340Z,61.87
2018-11-05T01:53:48.270Z,61.60
2018-11-05T01:56:17.171Z,61.91
2018-11-05T01:58:46.025Z,63.20
2018-11-05T02:01:15.071Z,62.29
2018-11-05T02:03:43.945Z,62.40
2018-11-05T02:06:12.801Z,62.49
2018-11-05T02:08:41.732Z,62.01
2018-11-05T02:11:10.657Z,62.67
2018-11-05T02:13:39.548Z,62.74
2018-11-05T02:16:08.554Z,62.15
2018-11-05T02:18:37.559Z,60.65
2018-11-05T02:21:06.708Z,60.58
2018-11-05T02:23:35.670Z,61.66
2018-11-05T02:26:04.570Z,62.17
2018-11-05T02:28:33.502Z,60.66
2018-11-05T02:31:02.469Z,60.78
2018-11-05T02:33:31.359Z,60.72
2018-11-05T02:36:00.293Z,60.27
2018-11-05T02:38:29.176Z,63.22
2018-11-05T02:40:58.050Z,61.19
2018-11-05T02:43:27.059Z,64.65
2018-11-05T02:45:56.020Z,63.09
2018-11-05T02:48:24.955Z,62.77
2018-11-05T02:50:53.906Z,67.91
2018-11-05T02:53:22.978Z,68.05
2018-11-05T02:55:51.845Z,67.20
2018-11-05T02:58:20.801Z,69.13
2018-11-05T03:00:49.701Z,67.69
2018-11-05T03:03:18.673Z,69.19
2018-11-05T03:05:47.528Z,68.63
2018-11-05T03:08:16.472Z,68.66
2018-11-05T03:10:45.372Z,67.10
2018-11-05T03:13:14.363Z,68.76
2018-11-05T03:15:43.303Z,68.67
2018-11-05T03:18:12.167Z,68.77
2018-11-05T03:20:41.108Z,61.56
2018-11-05T03:23:10.048Z,61.27
2018-11-05T03:25:38.957Z,63.00
2018-11-05T03:28:07.882Z,61.44
2018-11-05T03:30:36.849Z,59.86
2018-11-05T03:33:06.361Z,60.04
2018-11-05T03:35:35.314Z,61.01
2018-11-05T03:38:04.292Z,60.70
2018-11-05T03:40:33.199Z,61.05
2018-11-05T03:43:02.125Z,60.60
2018-11-05T03:45:30.941Z,61.47
2018-11-05T03:47:59.776Z,61.36
2018-11-05T03:50:28.698Z,61.08
2018-11-05T03:52:57.724Z,59.90
2018-11-05T03:55:26.672Z,59.17
2018-11-05T03:57:55.594Z,60.71
2018-11-05T04:00:24.637Z,60.95
2018-11-05T04:02:53.528Z,61.03
2018-11-05T04:05:22.444Z,62.11
2018-11-05T04:07:51.462Z,85.80
2018-11-05T04:10:20.341Z,84.11
2018-11-05T04:12:49.206Z,60.47
2018-11-05T04:15:18.182Z,57.56
2018-11-05T04:17:47.132Z,57.30
2018-11-05T04:20:16.038Z,57.28
2018-11-05T04:22:45.503Z,57.13
2018-11-05T04:25:14.456Z,57.92
2018-11-05T04:27:43.536Z,57.64
2018-11-05T04:30:14.986Z,57.62
2018-11-05T04:32:44.187Z,58.28
2018-11-05T04:35:13.557Z,59.25
2018-11-05T04:37:42.432Z,59.04
2018-11-05T04:40:12.041Z,59.58
2018-11-05T04:42:41.090Z,59.16
2018-11-05T04:45:11.684Z,59.06
2018-11-05T04:47:40.948Z,59.38
2018-11-05T04:50:11.117Z,59.32
2018-11-05T04:52:40.888Z,59.65
2018-11-05T04:55:09.787Z,60.02
2018-11-05T04:57:38.791Z,60.45
2018-11-05T05:00:10.185Z,60.87
2018-11-05T05:02:40.324Z,61.25
2018-11-05T05:05:09.912Z,60.79
2018-11-05T05:07:40.191Z,61.31
2018-11-05T05:10:09.939Z,63.93
2018-11-05T05:12:40.138Z,61.20
2018-11-05T05:15:09.606Z,60.54
2018-11-05T05:17:38.958Z,62.22
2018-11-05T05:20:10.253Z,62.38
2018-11-05T05:22:39.453Z,62.96
2018-11-05T05:25:08.161Z,62.69
2018-11-05T05:27:37.055Z,61.94
2018-11-05T05:30:11.895Z,61.85
2018-11-05T05:32:40.801Z,61.83
2018-11-05T05:35:09.962Z,61.52
2018-11-05T05:37:39.000Z,61.27
2018-11-05T05:40:08.312Z,61.44
2018-11-05T05:42:37.531Z,61.69
2018-11-05T05:45:07.593Z,62.06
2018-11-05T05:47:36.556Z,61.93
2018-11-05T05:50:07.792Z,61.46
2018-11-05T05:52:36.648Z,61.81
2018-11-05T05:55:06.657Z,62.25
2018-11-05T05:57:35.550Z,62.24
2018-11-05T06:00:05.119Z,67.31
2018-11-05T06:02:34.046Z,62.29
2018-11-05T06:05:02.915Z,62.36
2018-11-05T06:07:31.827Z,62.15
2018-11-05T06:10:00.756Z,61.60
2018-11-05T06:12:29.782Z,62.00
2018-11-05T06:14:58.829Z,62.78
2018-11-05T06:17:27.696Z,63.56
2018-11-05T06:19:56.706Z,63.38
2018-11-05T06:22:25.638Z,63.43
2018-11-05T06:24:54.602Z,63.52
2018-11-05T06:27:23.682Z,63.64
2018-11-05T06:29:52.595Z,63.76
2018-11-05T06:32:21.525Z,63.34
2018-11-05T06:34:50.370Z,64.00
2018-11-05T06:37:19.414Z,64.28
2018-11-05T06:39:48.340Z,63.92
2018-11-05T06:42:17.357Z,63.92
2018-11-05T06:44:46.303Z,63.79
2018-11-05T06:47:15.134Z,63.48
2018-11-05T06:49:43.983Z,63.75
2018-11-05T06:52:12.854Z,63.38
2018-11-05T06:54:41.853Z,62.85
2018-11-05T06:57:10.841Z,62.65
2018-11-05T06:59:39.830Z,62.94
2018-11-05T07:02:08.876Z,62.85
2018-11-05T07:04:37.928Z,63.05
2018-11-05T07:07:07.241Z,63.48
2018-11-05T07:09:36.485Z,63.25
2018-11-05T07:12:05.573Z,63.70
2018-11-05T07:14:34.613Z,62.74
2018-11-05T07:17:03.849Z,63.71
2018-11-05T07:19:32.959Z,64.41
2018-11-05T07:22:01.877Z,65.36
2018-11-05T07:24:30.890Z,64.81
2018-11-05T07:26:59.794Z,64.93
2018-11-05T07:29:28.761Z,64.61
2018-11-05T07:31:57.709Z,64.78
2018-11-05T07:34:33.215Z,63.51
2018-11-05T07:37:02.009Z,63.27
2018-11-05T07:39:31.132Z,63.94
2018-11-05T07:42:00.031Z,63.94
2018-11-05T07:44:28.932Z,63.84
2018-11-05T07:46:57.910Z,64.00
2018-11-05T07:49:26.897Z,64.28
2018-11-05T07:51:55.786Z,64.77
2018-11-05T07:54:24.744Z,64.69
2018-11-05T07:56:53.731Z,64.30
2018-11-05T07:59:22.532Z,65.47
2018-11-05T08:01:51.406Z,66.09
2018-11-05T08:04:20.540Z,66.31
2018-11-05T08:06:49.483Z,66.10
2018-11-05T08:09:18.395Z,65.48
2018-11-05T08:11:47.377Z,64.39
2018-11-05T08:14:16.685Z,63.87
2018-11-05T08:16:45.627Z,63.99
2018-11-05T08:19:14.859Z,63.64
2018-11-05T08:21:43.713Z,62.95
2018-11-05T08:24:12.629Z,62.58
2018-11-05T08:26:41.491Z,62.99
2018-11-05T08:29:10.538Z,62.54
2018-11-05T08:31:39.678Z,62.52
2018-11-05T08:34:08.602Z,62.10
2018-11-05T08:36:37.410Z,61.49
2018-11-05T08:39:10.391Z,61.58
2018-11-05T08:41:39.278Z,62.38
2018-11-05T08:44:09.341Z,61.38
2018-11-05T08:46:38.467Z,60.98
2018-11-05T08:49:07.543Z,60.36
2018-11-05T08:51:36.711Z,60.14
2018-11-05T08:54:05.513Z,58.93
2018-11-05T08:56:34.421Z,58.55
2018-11-05T08:59:03.287Z,58.52
2018-11-05T09:01:34.153Z,59.38
2018-11-05T09:04:03.390Z,60.04
2018-11-05T09:06:32.430Z,59.00
2018-11-05T09:09:01.317Z,58.75
2018-11-05T09:11:30.328Z,59.03
2018-11-05T09:13:59.114Z,59.76
2018-11-05T09:16:28.952Z,59.20
2018-11-05T09:18:58.081Z,58.53
2018-11-05T09:21:26.966Z,58.75
2018-11-05T09:23:55.965Z,57.99
2018-11-05T09:26:25.111Z,57.10
2018-11-05T09:28:54.030Z,57.28
2018-11-05T09:31:23.012Z,57.38
2018-11-05T09:33:52.000Z,57.76
2018-11-05T09:36:20.946Z,58.34
2018-11-05T09:38:50.003Z,57.59
2018-11-05T09:41:19.162Z,56.98
2018-11-05T09:43:48.036Z,56.55
2018-11-05T09:46:17.070Z,55.89
2018-11-05T09:48:45.953Z,55.50
2018-11-05T09:51:14.839Z,55.62
2018-11-05T09:53:43.722Z,55.60
2018-11-05T09:56:12.712Z,55.62
2018-11-05T09:58:41.739Z,56.04
2018-11-05T10:01:10.664Z,56.64
2018-11-05T10:03:44.804Z,56.27
2018-11-05T10:06:13.618Z,55.80
2018-11-05T10:08:42.742Z,56.01
2018-11-05T10:11:11.642Z,55.47
2018-11-05T10:13:40.750Z,54.57
2018-11-05T10:16:09.791Z,54.62
2018-11-05T10:18:38.662Z,53.76
2018-11-05T10:21:07.654Z,53.92
2018-11-05T10:23:36.689Z,53.30
2018-11-05T10:26:05.907Z,52.21
2018-11-05T10:28:34.829Z,52.78
2018-11-05T10:31:03.701Z,52.23
2018-11-05T10:33:32.637Z,51.99
2018-11-05T10:36:01.588Z,51.82
2018-11-05T10:38:30.534Z,51.65
2018-11-05T10:40:59.475Z,51.71
2018-11-05T10:43:28.411Z,51.56
2018-11-05T10:45:57.327Z,51.27
2018-11-05T10:48:26.302Z,51.44
2018-11-05T10:50:55.211Z,51.25
2018-11-05T10:53:24.127Z,50.38
2018-11-05T10:55:53.098Z,50.79
2018-11-05T10:58:22.151Z,50.67
2018-11-05T11:00:56.180Z,50.41
2018-11-05T11:03:29.121Z,49.83
2018-11-05T11:05:58.094Z,49.67
2018-11-05T11:08:27.082Z,50.39
2018-11-05T11:10:56.100Z,50.19
2018-11-05T11:13:24.970Z,50.07
2018-11-05T11:15:53.900Z,49.67
2018-11-05T11:18:22.859Z,49.75
2018-11-05T11:20:51.848Z,49.60
2018-11-05T11:23:20.757Z,49.50
2018-11-05T11:25:49.697Z,48.99
2018-11-05T11:28:18.603Z,48.34
2018-11-05T11:30:47.516Z,48.23
2018-11-05T11:33:16.579Z,48.42
2018-11-05T11:35:45.507Z,48.24
2018-11-05T11:38:14.465Z,47.88
2018-11-05T11:40:43.631Z,48.02
2018-11-05T11:43:12.665Z,47.53
2018-11-05T11:45:41.624Z,47.25
2018-11-05T11:48:10.605Z,47.51
2018-11-05T11:50:39.693Z,47.39
2018-11-05T11:53:08.681Z,47.04
2018-11-05T11:55:37.538Z,46.92
2018-11-05T11:58:06.607Z,46.86
2018-11-05T12:00:35.644Z,47.10
2018-11-05T12:03:04.800Z,46.97
2018-11-05T12:05:33.635Z,46.58
2018-11-05T12:08:02.499Z,46.36
2018-11-05T12:10:31.524Z,46.42
2018-11-05T12:13:00.641Z,45.81
2018-11-05T12:15:29.609Z,46.05
2018-11-05T12:17:58.469Z,45.83
2018-11-05T12:20:27.476Z,46.17
2018-11-05T12:22:56.292Z,45.89
2018-11-05T12:25:25.182Z,45.90
2018-11-05T12:27:54.083Z,45.83
2018-11-05T12:30:24.077Z,45.62
2018-11-05T12:32:54.224Z,45.48
2018-11-05T12:35:23.171Z,45.49
2018-11-05T12:37:53.054Z,45.39
2018-11-05T12:40:22.803Z,45.14
2018-11-05T12:42:52.176Z,45.49
2018-11-05T12:45:21.077Z,45.57
2018-11-05T12:47:49.972Z,45.38
2018-11-05T12:50:20.722Z,45.05
2018-11-05T12:52:50.498Z,45.08
2018-11-05T12:55:19.488Z,44.78
2018-11-05T12:57:48.806Z,44.74
2018-11-05T13:00:23.567Z,44.35
2018-11-05T13:03:00.580Z,44.56
2018-11-05T13:05:30.720Z,44.08
2018-11-05T13:07:59.574Z,44.01
2018-11-05T13:10:28.552Z,43.98
2018-11-05T13:12:57.446Z,43.71
2018-11-05T13:15:26.573Z,43.00
2018-11-05T13:18:01.478Z,43.01
2018-11-05T13:20:30.347Z,42.70
2018-11-05T13:22:59.262Z,42.14
2018-11-05T13:25:28.303Z,42.23
2018-11-05T13:27:57.356Z,41.53
2018-11-05T13:30:26.427Z,41.63
2018-11-05T13:32:55.413Z,41.34
2018-11-05T13:35:24.272Z,40.82
2018-11-05T13:37:53.560Z,40.43
2018-11-05T13:40:23.292Z,40.21
2018-11-05T13:42:52.719Z,39.96
2018-11-05T13:45:22.499Z,39.55
2018-11-05T13:47:51.544Z,39.52
2018-11-05T13:50:19.975Z,39.64
2018-11-05T13:52:48.743Z,39.69
2018-11-05T13:55:18.037Z,40.04
2018-11-05T13:57:48.307Z,40.07
2018-11-05T14:00:18.486Z,40.05
2018-11-05T14:02:47.421Z,39.78
2018-11-05T14:05:16.472Z,39.72
2018-11-05T14:07:45.548Z,39.98
2018-11-05T14:10:16.792Z,40.07
2018-11-05T14:12:46.332Z,40.09
2018-11-05T14:15:15.245Z,40.02
2018-11-05T14:17:44.733Z,39.78
2018-11-05T14:20:14.625Z,39.94
2018-11-05T14:22:43.803Z,39.72
2018-11-05T14:25:14.117Z,39.75
2018-11-05T14:27:44.161Z,39.85
2018-11-05T14:30:13.733Z,39.75
2018-11-05T14:32:43.967Z,39.63
2018-11-05T14:35:12.905Z,39.79
2018-11-05T14:37:41.763Z,39.87
2018-11-05T14:40:12.509Z,39.47
2018-11-05T14:42:41.567Z,39.72
2018-11-05T14:45:12.482Z,39.48
2018-11-05T14:47:42.614Z,39.66
2018-11-05T14:50:13.473Z,39.34
2018-11-05T14:52:42.388Z,39.36
2018-11-05T14:55:13.800Z,39.29
2018-11-05T14:57:43.294Z,39.31
2018-11-05T15:00:14.469Z,39.41
2018-11-05T15:02:44.074Z,39.32
2018-11-05T15:05:13.851Z,39.00
2018-11-05T15:07:43.808Z,39.60
2018-11-05T15:10:14.897Z,39.53
2018-11-05T15:12:44.198Z,39.78
2018-11-05T15:15:13.903Z,39.96
2018-11-05T15:17:43.425Z,40.26
2018-11-05T15:20:15.857Z,40.32
2018-11-05T15:22:44.637Z,40.40
2018-11-05T15:25:14.116Z,40.32
2018-11-05T15:27:43.140Z,40.33
2018-11-05T15:30:15.376Z,40.15
2018-11-05T15:32:44.517Z,39.77
2018-11-05T15:35:13.364Z,40.08
2018-11-05T15:37:42.849Z,39.84
2018-11-05T15:40:13.822Z,39.91
2018-11-05T15:42:42.711Z,39.74
2018-11-05T15:45:13.763Z,39.13
2018-11-05T15:47:43.118Z,39.04
2018-11-05T15:50:15.686Z,39.23
2018-11-05T15:52:44.877Z,38.54
2018-11-05T15:55:13.651Z,38.56
2018-11-05T15:57:42.544Z,38.16
2018-11-05T16:00:18.319Z,38.10
2018-11-05T16:02:49.349Z,38.57
2018-11-05T16:05:18.542Z,38.27
2018-11-05T16:07:47.508Z,38.08
2018-11-05T16:10:16.665Z,37.98
2018-11-05T16:12:45.802Z,38.01
2018-11-05T16:15:14.889Z,38.52
2018-11-05T16:17:43.849Z,38.70
2018-11-05T16:20:15.593Z,38.77
2018-11-05T16:22:45.158Z,38.28
2018-11-05T16:25:14.123Z,38.05
2018-11-05T16:27:43.641Z,38.77
2018-11-05T16:30:14.455Z,39.06
2018-11-05T16:32:43.988Z,39.36
2018-11-05T16:35:13.155Z,38.98
2018-11-05T16:37:42.162Z,39.14
2018-11-05T16:40:13.540Z,39.10
2018-11-05T16:42:43.060Z,39.36
2018-11-05T16:45:12.274Z,39.95
2018-11-05T16:47:41.799Z,39.72
2018-11-05T16:50:12.884Z,40.16
2018-11-05T16:52:42.008Z,40.80
2018-11-05T16:55:12.665Z,40.98
2018-11-05T16:57:42.120Z,41.88
2018-11-05T17:00:11.476Z,41.77
2018-11-05T17:02:40.585Z,41.62
2018-11-05T17:05:09.444Z,41.92
2018-11-05T17:07:38.623Z,42.01
2018-11-05T17:10:08.884Z,42.46
2018-11-05T17:12:37.835Z,42.95
2018-11-05T17:15:08.539Z,42.81
2018-11-05T17:17:37.742Z,43.22
2018-11-05T17:20:08.783Z,43.74
2018-11-05T17:22:37.694Z,43.99
2018-11-05T17:25:07.489Z,44.51
2018-11-05T17:27:36.543Z,44.50
2018-11-05T17:30:06.559Z,44.91
2018-11-05T17:32:35.524Z,45.92
2018-11-05T17:35:04.730Z,45.91
2018-11-05T17:37:33.644Z,45.72
2018-11-05T17:40:02.593Z,46.36
2018-11-05T17:42:32.425Z,46.66
2018-11-05T17:45:03.114Z,46.12
2018-11-05T17:47:40.227Z,47.52
2018-11-05T17:50:12.516Z,48.03
2018-11-05T17:52:41.686Z,48.56
2018-11-05T17:55:11.637Z,48.16
2018-11-05T17:57:41.265Z,48.65
2018-11-05T18:00:13.065Z,48.38
2018-11-05T18:02:41.997Z,49.10
2018-11-05T18:05:10.939Z,48.91
2018-11-05T18:07:39.840Z,49.33
2018-11-05T18:10:09.065Z,50.51
2018-11-05T18:12:37.992Z,50.43
2018-11-05T18:15:09.331Z,50.14
2018-11-05T18:17:38.942Z,49.90
2018-11-05T18:20:09.112Z,50.48
2018-11-05T18:22:38.108Z,50.34
2018-11-05T18:25:08.544Z,51.03
2018-11-05T18:27:37.500Z,49.98
2018-11-05T18:30:06.894Z,50.53
2018-11-05T18:32:35.845Z,51.02
2018-11-05T18:35:04.891Z,57.53
2018-11-05T18:37:34.910Z,51.37
2018-11-05T18:40:04.113Z,51.24
2018-11-05T18:42:33.161Z,51.67
2018-11-05T18:45:02.151Z,51.75
2018-11-05T18:47:31.118Z,51.91
2018-11-05T18:50:00.094Z,52.05
2018-11-05T18:52:29.077Z,52.49
2018-11-05T18:54:57.976Z,51.57
2018-11-05T18:57:27.061Z,51.90
2018-11-05T18:59:57.589Z,51.97
2018-11-05T19:02:31.482Z,51.51
2018-11-05T19:05:00.446Z,52.14
2018-11-05T19:07:29.522Z,52.17
2018-11-05T19:10:00.593Z,51.76
2018-11-05T19:12:29.780Z,51.70
2018-11-05T19:14:58.785Z,51.90
2018-11-05T19:17:27.708Z,52.29
2018-11-05T19:19:56.837Z,52.38
2018-11-05T19:22:25.762Z,52.27
2018-11-05T19:24:54.606Z,52.44
2018-11-05T19:27:23.504Z,52.38
2018-11-05T19:29:52.375Z,53.01
2018-11-05T19:32:21.285Z,54.12
2018-11-05T19:34:50.305Z,54.16
2018-11-05T19:37:19.235Z,55.51
2018-11-05T19:39:48.169Z,55.48
2018-11-05T19:42:17.243Z,56.62
2018-11-05T19:44:46.201Z,56.79
2018-11-05T19:47:15.169Z,57.81
2018-11-05T19:49:44.076Z,57.70
2018-11-05T19:52:13.004Z,57.85
2018-11-05T19:54:41.846Z,58.40
2018-11-05T19:57:10.873Z,58.31
2018-11-05T19:59:39.896Z,57.47
2018-11-05T20:02:09.182Z,56.69
2018-11-05T20:04:38.192Z,57.30
2018-11-05T20:07:07.108Z,57.36
2018-11-05T20:09:36.092Z,57.34
2018-11-05T20:12:05.224Z,57.47
2018-11-05T20:14:34.153Z,57.14
2018-11-05T20:17:03.187Z,59.21
2018-11-05T20:19:32.074Z,59.32
2018-11-05T20:22:01.053Z,58.74
2018-11-05T20:24:29.987Z,59.88
2018-11-05T20:26:58.933Z,59.33
2018-11-05T20:29:27.838Z,59.15
2018-11-05T20:31:57.065Z,58.71
2018-11-05T20:34:25.999Z,59.56
2018-11-05T20:36:54.894Z,58.34
2018-11-05T20:39:23.888Z,59.56
2018-11-05T20:41:52.989Z,58.50
2018-11-05T20:44:21.944Z,58.36
2018-11-05T20:46:51.270Z,58.86
2018-11-05T20:49:20.241Z,58.81
2018-11-05T20:51:49.127Z,57.56
2018-11-05T20:54:18.089Z,57.23
2018-11-05T20:56:47.350Z,57.01
2018-11-05T20:59:16.289Z,57.47
2018-11-05T21:01:45.256Z,57.71
2018-11-05T21:04:14.497Z,57.76
2018-11-05T21:06:43.886Z,57.81
2018-11-05T21:09:13.279Z,57.54
2018-11-05T21:11:42.208Z,56.93
2018-11-05T21:14:11.167Z,55.22
2018-11-05T21:16:40.303Z,55.65
2018-11-05T21:19:09.240Z,56.37
2018-11-05T21:21:39.015Z,56.42
2018-11-05T21:24:08.321Z,54.68
2018-11-05T21:26:37.377Z,54.44
2018-11-05T21:29:06.324Z,54.76
2018-11-05T21:31:35.841Z,56.23
2018-11-05T21:34:04.961Z,55.17
2018-11-05T21:36:34.015Z,55.06
2018-11-05T21:39:03.723Z,55.42
2018-11-05T21:41:32.836Z,55.84
2018-11-05T21:44:02.510Z,55.13
2018-11-05T21:46:31.578Z,55.63
2018-11-05T21:49:00.533Z,54.67
2018-11-05T21:51:30.134Z,55.28
2018-11-05T21:53:59.209Z,55.60
2018-11-05T21:56:28.152Z,57.42
2018-11-05T21:58:57.138Z,58.31
2018-11-05T22:01:27.355Z,59.53
2018-11-05T22:03:56.804Z,59.88
2018-11-05T22:06:26.185Z,59.41
2018-11-05T22:08:55.417Z,58.93
2018-11-05T22:11:24.487Z,58.09
2018-11-05T22:13:53.490Z,56.76
2018-11-05T22:16:25.474Z,55.84
2018-11-05T22:18:55.257Z,56.26
2018-11-05T22:21:24.191Z,56.92
2018-11-05T22:23:53.190Z,55.97
2018-11-05T22:26:22.147Z,56.29
2018-11-05T22:28:51.070Z,55.40
2018-11-05T22:31:20.184Z,54.84
2018-11-05T22:33:49.077Z,54.96
2018-11-05T22:36:19.466Z,56.61
2018-11-05T22:38:48.358Z,56.73
2018-11-05T22:41:17.882Z,55.63
2018-11-05T22:43:46.731Z,54.88
2018-11-05T22:46:15.929Z,55.21
2018-11-05T22:48:44.927Z,54.99
2018-11-05T22:51:14.005Z,54.65
2018-11-05T22:53:43.094Z,54.84
2018-11-05T22:56:12.046Z,54.83
2018-11-05T22:58:40.995Z,55.60
2018-11-05T23:01:14.059Z,58.74
2018-11-05T23:03:43.027Z,57.46
2018-11-05T23:06:11.880Z,55.66
2018-11-05T23:08:40.988Z,55.46
2018-11-05T23:11:10.581Z,56.47
2018-11-05T23:13:39.713Z,55.89
2018-11-05T23:16:09.071Z,55.91
2018-11-05T23:18:38.705Z,55.78
2018-11-05T23:21:07.918Z,55.92
2018-11-05T23:23:36.931Z,55.84
2018-11-05T23:26:06.266Z,55.60
2018-11-05T23:28:35.280Z,55.93
2018-11-05T23:31:04.221Z,56.42
2018-11-05T23:33:33.240Z,56.33
2018-11-05T23:36:02.565Z,56.70
2018-11-05T23:38:31.518Z,56.83
2018-11-05T23:41:00.672Z,57.13
2018-11-05T23:43:29.511Z,56.84
2018-11-05T23:45:58.401Z,56.59
2018-11-05T23:48:27.429Z,56.54
2018-11-05T23:50:56.395Z,56.86
2018-11-05T23:53:25.411Z,56.55
2018-11-05T23:55:54.318Z,56.89
2018-11-05T23:58:23.706Z,57.44
